Time;durP1;ratioP1;P1;durP2;ratioP2;P2;SDS_P1;SDS_P2;PMS_P1;PMS_P2;Temp;Humidity;BMP_temperature;BMP_pressure;BME280_temperature;BME280_humidity;BME280_pressure;Samples;Min_cycle;Max_cycle;Signal;HPM_P1;HPM_P2
2022/02/21 00:02:11;;;;;;;8.25;1.73;;;7.70;83.10;;;;;;5013707;28;20549;-74
2022/02/21 00:04:37;;;;;;;8.20;2.03;;;7.60;82.60;;;;;;5011502;28;20116;-74
2022/02/21 00:07:03;;;;;;;10.15;2.00;;;7.70;82.00;;;;;;5006717;28;20040;-75
2022/02/21 00:09:29;;;;;;;10.25;2.60;;;7.70;81.20;;;;;;5008358;28;20021;-75
2022/02/21 00:11:54;;;;;;;5.80;1.95;;;7.60;80.60;;;;;;5006086;28;20037;-73
2022/02/21 00:14:24;;;;;;;6.80;1.90;;;7.50;80.50;;;;;;5007803;28;20381;-73
2022/02/21 00:16:49;;;;;;;8.85;2.10;;;7.50;80.70;;;;;;5006377;28;20025;-75
2022/02/21 00:19:15;;;;;;;8.50;2.05;;;7.40;80.80;;;;;;5010301;28;20022;-74
2022/02/21 00:21:41;;;;;;;8.65;1.90;;;7.40;80.70;;;;;;5005757;28;20053;-74
2022/02/21 00:24:07;;;;;;;7.40;1.98;;;7.30;80.80;;;;;;5007878;28;20026;-73
2022/02/21 00:26:32;;;;;;;6.93;1.88;;;7.30;81.10;;;;;;5011959;28;20571;-73
2022/02/21 00:28:58;;;;;;;6.32;1.75;;;7.30;81.30;;;;;;5010505;28;20060;-74
2022/02/21 00:31:23;;;;;;;9.05;1.70;;;7.30;81.60;;;;;;5010130;28;20536;-74
2022/02/21 00:33:49;;;;;;;7.53;1.75;;;7.30;81.80;;;;;;5011247;28;20025;-74
2022/02/21 00:36:14;;;;;;;6.40;1.60;;;7.30;81.90;;;;;;5009588;28;20819;-74
2022/02/21 00:38:40;;;;;;;7.85;1.60;;;7.40;81.90;;;;;;5014257;28;20022;-74
2022/02/21 00:41:06;;;;;;;8.82;1.98;;;7.30;82.00;;;;;;5012261;28;20030;-74
2022/02/21 00:43:31;;;;;;;8.85;2.08;;;7.30;81.90;;;;;;5010285;28;20056;-75
2022/02/21 00:45:58;;;;;;;6.30;2.00;;;7.30;81.80;;;;;;5011977;28;20030;-74
2022/02/21 00:48:23;;;;;;;6.97;1.90;;;7.30;81.90;;;;;;5008972;28;20515;-75
2022/02/21 00:50:49;;;;;;;9.63;2.15;;;7.20;81.80;;;;;;5010214;28;20029;-74
2022/02/21 00:53:15;;;;;;;10.95;2.17;;;7.30;81.90;;;;;;5008263;28;20030;-74
2022/02/21 00:55:41;;;;;;;8.50;2.25;;;7.30;81.70;;;;;;5008648;28;20068;-75
2022/02/21 00:58:07;;;;;;;11.32;2.20;;;7.30;81.70;;;;;;5006006;28;20105;-75
2022/02/21 01:00:33;;;;;;;12.00;3.03;;;7.20;81.40;;;;;;5004016;28;20046;-74
2022/02/21 01:02:59;;;;;;;8.90;1.90;;;7.30;81.10;;;;;;5007775;28;20033;-74
2022/02/21 01:05:25;;;;;;;11.00;2.33;;;7.30;80.90;;;;;;5014631;28;20056;-74
2022/02/21 01:07:50;;;;;;;11.65;2.30;;;7.20;80.10;;;;;;5009751;28;20065;-73
2022/02/21 01:10:16;;;;;;;11.07;2.35;;;7.20;79.90;;;;;;5014529;28;20048;-73
2022/02/21 01:12:42;;;;;;;9.63;2.13;;;7.20;79.70;;;;;;5014191;28;20537;-74
2022/02/21 01:15:12;;;;;;;9.68;2.30;;;7.20;80.40;;;;;;5005086;28;20034;-73
2022/02/21 01:17:37;;;;;;;10.60;2.38;;;7.10;79.30;;;;;;5008301;28;20552;-74
2022/02/21 01:20:13;;;;;;;8.18;2.38;;;6.90;78.60;;;;;;5011327;28;20033;-73
2022/02/21 01:22:39;;;;;;;8.13;2.13;;;6.70;79.10;;;;;;5007540;28;20056;-74
2022/02/21 01:25:07;;;;;;;9.27;2.10;;;6.50;79.40;;;;;;5008637;28;20769;-74
2022/02/21 01:27:33;;;;;;;8.40;2.10;;;6.50;79.90;;;;;;5006623;28;20045;-74
2022/02/21 01:29:58;;;;;;;9.55;2.42;;;6.40;79.90;;;;;;5007781;28;20049;-73
2022/02/21 01:32:24;;;;;;;9.05;2.35;;;6.40;80.20;;;;;;5007302;28;20412;-74
2022/02/21 01:34:49;;;;;;;12.35;2.72;;;6.40;80.30;;;;;;5008852;28;20526;-75
2022/02/21 01:37:15;;;;;;;13.45;2.95;;;6.40;80.50;;;;;;5007583;28;20460;-74
2022/02/21 01:39:41;;;;;;;9.05;2.60;;;6.30;80.40;;;;;;5009624;28;20092;-74
2022/02/21 01:42:06;;;;;;;10.35;2.90;;;6.30;80.50;;;;;;5006834;28;20041;-75
2022/02/21 01:44:44;;;;;;;13.45;2.50;;;6.40;80.40;;;;;;5010054;28;20182;-74
2022/02/21 01:47:15;;;;;;;8.73;2.60;;;6.40;80.10;;;;;;5007511;28;20062;-74
2022/02/21 01:49:41;;;;;;;10.38;2.20;;;6.40;79.90;;;;;;5010643;28;20042;-75
2022/02/21 01:52:08;;;;;;;11.45;2.45;;;6.50;79.60;;;;;;5006846;28;20690;-74
2022/02/21 01:54:34;;;;;;;9.90;2.42;;;6.50;79.40;;;;;;5007359;28;20437;-76
2022/02/21 01:57:00;;;;;;;11.63;2.60;;;6.40;78.80;;;;;;5005176;28;20032;-74
2022/02/21 01:59:25;;;;;;;8.82;2.30;;;6.50;78.50;;;;;;4978421;28;1020214;-75
2022/02/21 02:01:52;;;;;;;9.48;2.50;;;6.50;78.60;;;;;;5007921;28;20033;-74
2022/02/21 02:04:19;;;;;;;9.32;2.17;;;6.50;77.90;;;;;;5013578;28;20029;-75
2022/02/21 02:06:47;;;;;;;7.20;2.10;;;6.60;77.40;;;;;;5015647;28;20026;-75
2022/02/21 02:09:13;;;;;;;10.68;2.47;;;6.60;77.00;;;;;;5015970;28;20045;-75
2022/02/21 02:11:42;;;;;;;9.50;2.50;;;6.50;76.30;;;;;;5005212;28;20022;-75
2022/02/21 02:14:08;;;;;;;8.30;1.88;;;6.60;76.50;;;;;;5008969;28;20037;-76
2022/02/21 02:16:33;;;;;;;9.52;2.15;;;6.50;76.70;;;;;;5011328;28;20030;-76
2022/02/21 02:18:59;;;;;;;10.00;2.70;;;6.50;76.80;;;;;;5012296;28;20069;-74
2022/02/21 02:21:31;;;;;;;8.02;1.90;;;6.50;76.20;;;;;;5010308;28;20030;-76
2022/02/21 02:23:57;;;;;;;10.02;2.40;;;6.50;76.10;;;;;;5010783;28;20034;-76
2022/02/21 02:26:23;;;;;;;7.05;1.85;;;6.40;76.30;;;;;;5008427;28;20076;-76
2022/02/21 02:28:54;;;;;;;9.68;2.55;;;6.40;76.00;;;;;;5004532;28;20025;-75
2022/02/21 02:31:20;;;;;;;14.18;2.60;;;6.50;75.80;;;;;;5013551;28;20555;-75
2022/02/21 02:33:46;;;;;;;12.38;2.72;;;6.50;75.70;;;;;;5009010;28;20137;-76
2022/02/21 02:36:11;;;;;;;10.32;2.25;;;6.50;74.90;;;;;;5006204;28;20109;-75
2022/02/21 02:38:38;;;;;;;8.35;2.30;;;6.50;74.80;;;;;;5008667;28;20030;-75
2022/02/21 02:41:05;;;;;;;7.07;2.28;;;6.50;74.80;;;;;;5007691;28;20480;-75
2022/02/21 02:43:31;;;;;;;7.75;2.15;;;6.50;74.90;;;;;;5015182;28;20026;-75
2022/02/21 02:45:56;;;;;;;8.13;2.22;;;6.50;74.70;;;;;;5011329;28;20481;-75
2022/02/21 02:48:22;;;;;;;10.65;2.33;;;6.40;74.60;;;;;;5007190;28;20042;-74
2022/02/21 02:50:47;;;;;;;8.98;2.50;;;6.40;75.00;;;;;;5005523;28;20103;-76
2022/02/21 02:53:13;;;;;;;9.55;2.05;;;6.40;75.40;;;;;;5008453;28;20112;-75
2022/02/21 02:55:38;;;;;;;7.00;1.98;;;6.30;75.50;;;;;;5007447;28;20029;-75
2022/02/21 02:58:04;;;;;;;7.47;1.98;;;6.30;75.80;;;;;;5007202;28;20748;-74
2022/02/21 03:00:29;;;;;;;10.23;2.53;;;6.30;75.90;;;;;;5009258;28;20030;-74
2022/02/21 03:02:55;;;;;;;8.75;2.20;;;6.30;75.90;;;;;;5008924;28;20022;-77
2022/02/21 03:05:21;;;;;;;9.10;2.70;;;6.20;75.60;;;;;;5010265;28;20081;-76
2022/02/21 03:07:46;;;;;;;7.43;2.08;;;6.30;75.50;;;;;;5012251;28;20037;-76
2022/02/21 03:10:12;;;;;;;8.00;1.92;;;6.20;75.10;;;;;;5008221;28;20036;-76
2022/02/21 03:12:38;;;;;;;9.10;1.98;;;6.20;74.90;;;;;;5008208;28;20481;-75
2022/02/21 03:15:03;;;;;;;7.13;2.10;;;6.20;75.00;;;;;;5003356;28;20033;-76
2022/02/21 03:17:29;;;;;;;7.60;2.60;;;6.20;74.70;;;;;;5002452;28;20026;-77
2022/02/21 03:19:54;;;;;;;9.48;2.30;;;6.10;74.00;;;;;;5006594;28;20040;-75
2022/02/21 03:22:20;;;;;;;8.77;1.95;;;6.10;74.10;;;;;;5008141;28;20029;-76
2022/02/21 03:24:46;;;;;;;6.80;1.88;;;6.20;73.80;;;;;;5005253;28;20026;-76
2022/02/21 03:27:11;;;;;;;9.23;2.25;;;6.20;73.50;;;;;;5006340;28;20052;-76
2022/02/21 03:29:36;;;;;;;9.05;2.05;;;6.20;73.10;;;;;;5007483;28;20025;-76
2022/02/21 03:32:02;;;;;;;11.38;2.40;;;6.20;73.00;;;;;;5008125;28;20037;-76
2022/02/21 03:34:28;;;;;;;10.02;2.85;;;6.20;73.40;;;;;;5005611;28;20022;-75
2022/02/21 03:36:53;;;;;;;10.45;2.60;;;6.10;72.50;;;;;;5006551;28;20362;-76
2022/02/21 03:39:19;;;;;;;9.63;2.60;;;6.10;72.80;;;;;;5007358;28;20044;-75
2022/02/21 03:41:45;;;;;;;8.52;2.28;;;6.10;73.30;;;;;;5006408;28;20030;-75
2022/02/21 03:44:10;;;;;;;7.75;2.08;;;6.00;73.70;;;;;;5003877;28;20022;-76
2022/02/21 03:46:39;;;;;;;8.10;2.45;;;5.90;74.20;;;;;;5006724;28;20461;-76
2022/02/21 03:49:08;;;;;;;10.43;1.98;;;5.90;74.70;;;;;;5005293;28;20456;-75
2022/02/21 03:51:34;;;;;;;10.18;2.35;;;5.90;75.30;;;;;;5008265;28;20136;-76
2022/02/21 03:53:59;;;;;;;6.65;2.00;;;5.80;75.20;;;;;;5006065;28;20532;-76
2022/02/21 03:56:25;;;;;;;9.32;1.75;;;5.80;75.10;;;;;;5010420;28;20041;-76
2022/02/21 03:58:50;;;;;;;7.10;1.80;;;5.80;75.10;;;;;;5010822;28;20025;-76
2022/02/21 04:01:16;;;;;;;8.40;2.22;;;5.80;75.10;;;;;;5007476;28;20026;-76
2022/02/21 04:03:42;;;;;;;8.75;2.08;;;5.80;75.00;;;;;;5009029;28;20030;-76
2022/02/21 04:06:08;;;;;;;11.82;1.92;;;5.90;74.80;;;;;;5007299;28;20083;-76
2022/02/21 04:08:33;;;;;;;6.38;1.80;;;5.90;74.70;;;;;;5009186;28;20034;-76
2022/02/21 04:10:59;;;;;;;8.15;2.20;;;5.90;74.50;;;;;;5015971;28;20534;-75
2022/02/21 04:13:24;;;;;;;9.43;2.53;;;5.90;74.30;;;;;;5007130;28;20476;-75
2022/02/21 04:15:50;;;;;;;9.93;2.42;;;6.00;73.90;;;;;;5006079;28;20468;-75
2022/02/21 04:18:16;;;;;;;8.93;2.60;;;5.90;73.20;;;;;;5005155;28;20157;-75
2022/02/21 04:20:42;;;;;;;6.15;1.98;;;5.90;72.70;;;;;;5018935;28;20136;-75
2022/02/21 04:23:07;;;;;;;8.70;2.53;;;5.90;72.20;;;;;;5004742;28;20496;-75
2022/02/21 04:25:33;;;;;;;11.05;2.30;;;6.00;71.80;;;;;;5004270;28;20105;-75
2022/02/21 04:27:58;;;;;;;11.65;2.88;;;6.00;71.50;;;;;;5005935;28;20046;-76
2022/02/21 04:30:26;;;;;;;7.97;2.20;;;6.00;70.70;;;;;;5002574;28;20026;-76
2022/02/21 04:32:52;;;;;;;10.90;2.20;;;6.00;70.30;;;;;;5008673;28;20026;-75
2022/02/21 04:35:19;;;;;;;9.73;2.40;;;6.10;70.20;;;;;;5006641;28;20033;-76
2022/02/21 04:37:46;;;;;;;12.63;2.60;;;6.10;70.10;;;;;;5011477;28;20511;-76
2022/02/21 04:40:15;;;;;;;7.28;2.25;;;6.10;69.70;;;;;;5009744;28;20057;-76
2022/02/21 04:42:41;;;;;;;8.82;2.03;;;6.10;70.00;;;;;;5010600;28;20131;-76
2022/02/21 04:45:08;;;;;;;6.50;2.20;;;6.20;70.20;;;;;;5004315;28;20697;-76
2022/02/21 04:47:34;;;;;;;9.60;2.15;;;6.10;69.90;;;;;;5003453;28;20064;-76
2022/02/21 04:49:59;;;;;;;8.57;2.42;;;6.10;69.60;;;;;;5007067;28;20029;-76
2022/02/21 04:52:25;;;;;;;8.65;2.17;;;6.10;69.50;;;;;;5007003;28;20030;-76
2022/02/21 04:54:50;;;;;;;11.18;2.45;;;6.00;69.40;;;;;;5002965;28;20026;-76
2022/02/21 04:57:16;;;;;;;11.48;2.75;;;6.00;69.20;;;;;;5005625;28;20026;-77
2022/02/21 04:59:42;;;;;;;9.40;2.40;;;6.00;68.80;;;;;;5008214;28;20626;-77
2022/02/21 05:02:10;;;;;;;6.70;1.88;;;6.00;68.70;;;;;;5007332;28;20048;-77
2022/02/21 05:04:36;;;;;;;6.82;1.95;;;6.00;68.80;;;;;;5009778;28;20029;-78
2022/02/21 05:07:02;;;;;;;8.05;1.73;;;6.00;68.20;;;;;;5010083;28;20554;-77
2022/02/21 05:09:27;;;;;;;7.97;2.40;;;6.00;68.50;;;;;;5011827;28;20452;-77
2022/02/21 05:11:53;;;;;;;6.13;1.80;;;6.00;68.00;;;;;;5008610;28;20030;-77
2022/02/21 05:14:18;;;;;;;5.35;1.70;;;6.00;68.00;;;;;;5009178;28;20029;-76
2022/02/21 05:16:45;;;;;;;8.10;2.10;;;6.10;68.20;;;;;;5010128;28;20034;-75
2022/02/21 05:19:11;;;;;;;7.25;1.92;;;6.00;67.80;;;;;;5011551;28;20021;-75
2022/02/21 05:21:37;;;;;;;7.35;2.00;;;6.00;67.90;;;;;;5010254;28;20033;-76
2022/02/21 05:24:02;;;;;;;7.70;2.05;;;6.00;68.00;;;;;;5007863;28;20369;-77
2022/02/21 05:26:28;;;;;;;7.30;2.30;;;6.00;68.00;;;;;;5007622;28;20026;-76
2022/02/21 05:28:53;;;;;;;7.53;2.10;;;6.00;68.00;;;;;;5008942;28;20451;-77
2022/02/21 05:31:21;;;;;;;4.47;1.70;;;6.00;68.10;;;;;;5010999;28;20104;-75
2022/02/21 05:33:47;;;;;;;5.55;1.80;;;6.00;68.10;;;;;;5008986;28;20025;-76
2022/02/21 05:36:12;;;;;;;10.82;3.08;;;6.00;68.40;;;;;;5009336;28;20033;-76
2022/02/21 05:38:38;;;;;;;6.25;1.80;;;6.10;68.30;;;;;;5009872;28;20591;-75
2022/02/21 05:41:03;;;;;;;6.07;1.83;;;6.10;68.60;;;;;;5010690;28;20033;-75
2022/02/21 05:43:29;;;;;;;7.13;1.90;;;6.10;68.80;;;;;;5010461;28;20049;-76
2022/02/21 05:45:54;;;;;;;6.93;1.67;;;6.10;68.80;;;;;;5009494;28;20507;-75
2022/02/21 05:48:20;;;;;;;7.53;1.88;;;6.10;68.90;;;;;;5008680;28;20423;-74
2022/02/21 05:50:45;;;;;;;11.00;2.58;;;6.10;68.70;;;;;;5009793;28;20022;-75
2022/02/21 05:53:11;;;;;;;9.13;2.08;;;6.00;68.60;;;;;;5009380;28;20022;-76
2022/02/21 05:55:37;;;;;;;6.75;2.40;;;6.00;68.90;;;;;;5010417;28;20029;-75
2022/02/21 05:58:02;;;;;;;4.82;1.70;;;5.90;68.90;;;;;;5008247;28;20104;-74
2022/02/21 06:00:28;;;;;;;8.02;2.05;;;5.90;69.30;;;;;;5009677;28;20128;-74
2022/02/21 06:02:54;;;;;;;9.98;2.38;;;5.90;69.40;;;;;;5008093;28;20029;-75
2022/02/21 06:05:19;;;;;;;9.32;2.22;;;5.90;69.40;;;;;;5014812;28;20076;-74
2022/02/21 06:07:45;;;;;;;9.88;2.03;;;5.80;69.50;;;;;;5011514;28;20042;-74
2022/02/21 06:10:10;;;;;;;6.72;2.10;;;5.80;69.70;;;;;;5007502;28;20022;-74
2022/02/21 06:12:36;;;;;;;11.38;2.50;;;5.80;69.80;;;;;;5004204;28;20029;-75
2022/02/21 06:15:02;;;;;;;10.27;2.50;;;5.80;70.00;;;;;;5009080;28;20070;-75
2022/02/21 06:17:28;;;;;;;10.60;2.55;;;5.80;70.00;;;;;;5008418;28;20034;-75
2022/02/21 06:19:53;;;;;;;8.85;2.20;;;5.80;70.00;;;;;;5009914;28;20107;-74
2022/02/21 06:22:20;;;;;;;6.60;2.10;;;5.80;70.00;;;;;;5012752;28;20492;-74
2022/02/21 06:24:45;;;;;;;14.82;2.65;;;5.80;70.20;;;;;;5007625;28;20056;-74
2022/02/21 06:27:11;;;;;;;10.48;2.67;;;5.80;70.20;;;;;;5008788;28;20500;-74
2022/02/21 06:29:37;;;;;;;10.13;2.30;;;5.80;70.00;;;;;;5008824;28;20038;-75
2022/02/21 06:32:03;;;;;;;9.20;2.00;;;5.70;70.10;;;;;;5008713;28;20030;-82
2022/02/21 06:34:28;;;;;;;8.95;1.98;;;5.70;70.00;;;;;;5008977;28;20538;-81
2022/02/21 06:36:54;;;;;;;11.55;2.38;;;5.80;70.20;;;;;;5007116;28;20478;-82
2022/02/21 06:39:20;;;;;;;9.15;2.22;;;5.70;70.20;;;;;;5008997;28;20034;-75
2022/02/21 06:41:50;;;;;;;8.32;2.25;;;5.70;70.30;;;;;;5006471;28;20017;-75
2022/02/21 06:44:16;;;;;;;8.18;2.30;;;5.80;70.50;;;;;;5003080;28;20034;-75
2022/02/21 06:46:42;;;;;;;11.48;2.85;;;5.80;70.50;;;;;;5007441;28;20038;-75
2022/02/21 06:49:09;;;;;;;10.75;2.80;;;5.80;70.20;;;;;;5008793;28;20054;-74
2022/02/21 06:51:35;;;;;;;7.57;2.30;;;5.80;70.30;;;;;;5009613;28;20041;-74
2022/02/21 06:54:06;;;;;;;6.90;1.90;;;5.70;70.20;;;;;;5003874;28;20042;-75
2022/02/21 06:56:32;;;;;;;14.57;2.80;;;5.80;70.50;;;;;;5006102;28;20120;-75
2022/02/21 06:58:58;;;;;;;14.52;3.88;;;5.80;70.40;;;;;;5008470;28;20039;-75
2022/02/21 07:01:24;;;;;;;6.80;2.13;;;5.70;70.10;;;;;;4995276;28;20116;-74
2022/02/21 07:03:54;;;;;;;6.95;2.10;;;5.90;70.30;;;;;;5005061;28;20121;-74
2022/02/21 07:06:20;;;;;;;9.90;2.42;;;5.90;70.30;;;;;;5002555;28;20025;-74
2022/02/21 07:08:46;;;;;;;9.13;2.38;;;5.90;70.00;;;;;;5006022;28;20045;-74
2022/02/21 07:11:11;;;;;;;8.63;2.55;;;5.90;70.00;;;;;;5006921;28;20026;-73
2022/02/21 07:13:37;;;;;;;9.00;2.28;;;5.90;69.90;;;;;;5008562;28;20125;-74
2022/02/21 07:16:03;;;;;;;9.20;2.03;;;6.00;70.10;;;;;;5005779;28;20057;-74
2022/02/21 07:18:29;;;;;;;7.50;2.30;;;6.00;70.20;;;;;;5003169;28;20081;-73
2022/02/21 07:20:55;;;;;;;8.50;2.20;;;6.10;70.00;;;;;;5003507;28;20025;-75
2022/02/21 07:23:23;;;;;;;9.27;2.45;;;6.00;69.90;;;;;;5006854;28;20435;-74
2022/02/21 07:25:49;;;;;;;8.35;2.15;;;6.10;70.10;;;;;;5004941;28;20037;-76
2022/02/21 07:28:15;;;;;;;11.20;2.75;;;6.10;70.10;;;;;;5000581;28;20529;-75
2022/02/21 07:30:42;;;;;;;8.02;2.20;;;6.00;70.10;;;;;;5004898;28;20136;-76
2022/02/21 07:33:08;;;;;;;8.10;2.33;;;6.10;70.10;;;;;;5007425;28;20076;-76
2022/02/21 07:35:34;;;;;;;12.60;3.13;;;6.10;70.20;;;;;;5000530;28;20018;-74
2022/02/21 07:37:59;;;;;;;9.13;2.40;;;6.20;70.10;;;;;;5005684;28;20427;-75
2022/02/21 07:40:26;;;;;;;8.05;2.25;;;6.10;70.00;;;;;;5010943;28;20124;-74
2022/02/21 07:42:53;;;;;;;10.52;2.90;;;6.20;70.20;;;;;;5013117;28;20040;-75
2022/02/21 07:45:20;;;;;;;8.57;2.25;;;6.20;70.20;;;;;;5016444;28;20077;-76
2022/02/21 07:47:47;;;;;;;7.45;2.10;;;6.20;69.90;;;;;;5007834;28;20041;-75
2022/02/21 07:50:14;;;;;;;9.48;2.30;;;6.20;69.90;;;;;;5015488;28;20044;-75
2022/02/21 07:52:40;;;;;;;10.82;2.40;;;6.20;69.80;;;;;;5012385;28;20026;-75
2022/02/21 07:55:07;;;;;;;6.55;1.90;;;6.30;69.50;;;;;;5009381;28;20025;-75
2022/02/21 07:57:33;;;;;;;7.32;2.45;;;6.30;69.70;;;;;;5007731;28;20400;-76
2022/02/21 07:59:59;;;;;;;10.10;2.13;;;6.30;69.80;;;;;;5010294;28;20112;-75
2022/02/21 08:02:25;;;;;;;7.80;2.30;;;6.30;69.60;;;;;;5015991;28;20018;-75
2022/02/21 08:04:50;;;;;;;10.85;2.58;;;6.40;69.80;;;;;;5010248;28;20353;-76
2022/02/21 08:07:16;;;;;;;11.55;2.47;;;6.50;69.90;;;;;;5008414;28;20025;-76
2022/02/21 08:09:42;;;;;;;8.85;2.13;;;6.50;70.00;;;;;;5013437;28;20038;-74
2022/02/21 08:12:08;;;;;;;9.15;2.70;;;6.50;69.90;;;;;;5007345;28;20014;-76
2022/02/21 08:14:37;;;;;;;7.20;2.00;;;6.50;70.10;;;;;;5008455;28;20040;-76
2022/02/21 08:17:03;;;;;;;6.75;2.20;;;6.50;70.20;;;;;;4999798;28;20053;-77
2022/02/21 08:19:28;;;;;;;9.45;2.15;;;6.60;70.00;;;;;;5007879;28;20711;-76
2022/02/21 08:21:54;;;;;;;7.07;2.10;;;6.50;70.00;;;;;;5017253;28;20551;-75
2022/02/21 08:24:20;;;;;;;9.23;2.78;;;6.50;70.00;;;;;;5020016;28;20388;-77
2022/02/21 08:26:46;;;;;;;8.60;2.22;;;6.50;70.10;;;;;;5010814;28;20022;-75
2022/02/21 08:29:12;;;;;;;8.60;2.30;;;6.50;70.10;;;;;;5010377;28;20021;-74
2022/02/21 08:31:37;;;;;;;11.13;2.78;;;6.60;70.20;;;;;;5018256;28;20014;-76
2022/02/21 08:34:03;;;;;;;8.95;2.08;;;6.50;70.20;;;;;;5015216;28;20580;-75
2022/02/21 08:36:29;;;;;;;8.50;1.90;;;6.50;70.20;;;;;;5007363;28;20026;-75
2022/02/21 08:38:55;;;;;;;8.10;2.03;;;6.50;70.40;;;;;;5006757;28;20026;-75
2022/02/21 08:41:20;;;;;;;7.18;2.22;;;6.50;70.20;;;;;;5011570;28;20064;-76
2022/02/21 08:43:46;;;;;;;7.47;2.00;;;6.40;70.20;;;;;;5011870;28;20496;-75
2022/02/21 08:46:12;;;;;;;10.07;2.20;;;6.50;70.40;;;;;;5009461;28;20044;-76
2022/02/21 08:48:38;;;;;;;10.73;2.30;;;6.50;70.60;;;;;;5019232;28;20439;-75
2022/02/21 08:51:03;;;;;;;10.90;2.55;;;6.40;70.50;;;;;;5018210;28;20025;-77
2022/02/21 08:53:29;;;;;;;6.32;2.00;;;6.40;70.80;;;;;;5017482;28;20056;-75
2022/02/21 08:55:54;;;;;;;6.53;2.38;;;6.40;71.20;;;;;;5013028;28;20030;-74
2022/02/21 08:58:20;;;;;;;8.40;2.60;;;6.40;71.60;;;;;;5012647;28;20033;-74
2022/02/21 09:00:45;;;;;;;7.40;2.00;;;6.30;72.40;;;;;;5014551;28;20566;-74
2022/02/21 09:03:11;;;;;;;11.63;3.38;;;6.20;73.20;;;;;;5008921;28;20044;-75
2022/02/21 09:05:37;;;;;;;12.93;2.50;;;6.10;74.30;;;;;;5010102;28;20059;-74
2022/02/21 09:08:04;;;;;;;11.98;2.30;;;6.10;74.70;;;;;;5005906;28;20133;-75
2022/02/21 09:10:30;;;;;;;10.55;2.50;;;6.00;75.60;;;;;;5009012;28;20017;-75
2022/02/21 09:12:56;;;;;;;10.07;2.20;;;5.90;76.30;;;;;;5009885;28;20485;-75
2022/02/21 09:15:22;;;;;;;11.52;2.22;;;5.80;76.80;;;;;;5007991;28;20080;-73
2022/02/21 09:17:48;;;;;;;10.32;2.50;;;5.80;77.20;;;;;;5008263;28;20032;-74
2022/02/21 09:20:15;;;;;;;7.45;2.17;;;5.80;77.50;;;;;;5008730;28;20036;-74
2022/02/21 09:22:41;;;;;;;13.25;2.42;;;5.80;77.70;;;;;;5006772;28;20447;-73
2022/02/21 09:25:07;;;;;;;10.07;2.40;;;5.80;78.20;;;;;;5008152;28;20018;-72
2022/02/21 09:27:33;;;;;;;10.48;2.60;;;5.60;78.40;;;;;;5007172;28;20124;-72
2022/02/21 09:29:58;;;;;;;9.98;2.33;;;5.50;78.90;;;;;;5008617;28;20122;-74
2022/02/21 09:32:24;;;;;;;10.68;2.33;;;5.50;79.40;;;;;;5007508;28;20439;-74
2022/02/21 09:34:49;;;;;;;13.13;2.75;;;5.40;79.70;;;;;;5007745;28;20022;-73
2022/02/21 09:37:15;;;;;;;11.95;2.92;;;5.40;80.20;;;;;;5007532;28;20018;-76
2022/02/21 09:39:40;;;;;;;9.65;2.55;;;5.40;80.40;;;;;;5009663;28;20120;-75
2022/02/21 09:42:06;;;;;;;7.20;2.58;;;5.30;80.70;;;;;;5007832;28;20044;-75
2022/02/21 09:44:32;;;;;;;9.50;2.65;;;5.30;80.90;;;;;;5007076;28;20030;-76
2022/02/21 09:47:00;;;;;;;12.48;2.85;;;5.30;81.20;;;;;;5007802;28;20518;-76
2022/02/21 09:49:29;;;;;;;10.80;2.40;;;5.20;81.50;;;;;;5007698;28;20530;-74
2022/02/21 09:51:54;;;;;;;9.48;2.50;;;5.10;81.90;;;;;;5016075;28;20021;-75
2022/02/21 09:54:21;;;;;;;7.00;2.17;;;5.10;82.10;;;;;;5016014;28;20091;-75
2022/02/21 09:56:48;;;;;;;7.22;2.40;;;5.10;82.50;;;;;;5010997;28;20417;-75
2022/02/21 09:59:14;;;;;;;7.78;2.03;;;5.10;82.50;;;;;;5016459;28;20055;-74
2022/02/21 10:01:42;;;;;;;7.35;2.22;;;5.10;82.70;;;;;;5009985;28;20033;-75
2022/02/21 10:04:11;;;;;;;8.30;2.25;;;5.10;82.90;;;;;;5011755;28;20036;-75
2022/02/21 10:06:37;;;;;;;7.55;2.15;;;5.10;83.20;;;;;;5010339;28;20026;-76
2022/02/21 10:09:11;;;;;;;11.00;3.05;;;5.10;83.60;;;;;;5003830;28;20048;-75
2022/02/21 10:11:42;;;;;;;13.68;2.70;;;5.10;83.90;;;;;;5007726;28;20014;-75
2022/02/21 10:14:12;;;;;;;9.32;2.58;;;5.10;84.20;;;;;;5009434;28;20025;-74
2022/02/21 10:16:37;;;;;;;8.55;2.80;;;5.10;84.40;;;;;;5010656;28;20045;-77
2022/02/21 10:19:12;;;;;;;6.97;2.28;;;5.10;84.40;;;;;;5014182;28;20022;-75
2022/02/21 10:22:08;;;;;;;10.18;2.72;;;5.20;84.60;;;;;;5005582;28;20443;-75
2022/02/21 10:24:38;;;;;;;12.38;2.60;;;5.20;84.80;;;;;;5008688;28;20100;-76
2022/02/21 10:27:21;;;;;;;9.43;2.70;;;5.20;84.90;;;;;;5006830;28;20353;-76
2022/02/21 10:29:55;;;;;;;14.90;2.90;;;5.20;85.10;;;;;;5008622;28;20116;-75
2022/02/21 10:32:24;;;;;;;12.75;3.05;;;5.20;85.10;;;;;;5008543;28;20057;-75
2022/02/21 10:34:51;;;;;;;9.98;2.60;;;5.30;85.20;;;;;;5009625;28;20028;-73
2022/02/21 10:37:25;;;;;;;7.85;2.05;;;5.30;85.20;;;;;;5007705;28;20057;-73
2022/02/21 10:40:16;;;;;;;10.68;2.60;;;5.10;85.30;;;;;;5011506;28;20061;-74
2022/02/21 10:42:43;;;;;;;10.85;2.70;;;5.10;85.50;;;;;;5007120;28;20038;-73
2022/02/21 10:45:11;;;;;;;9.55;1.92;;;5.10;85.70;;;;;;5011003;28;20025;-75
2022/02/21 10:47:36;;;;;;;12.00;2.50;;;5.10;85.80;;;;;;5006471;28;20468;-74
2022/02/21 10:50:04;;;;;;;8.65;2.30;;;5.10;85.80;;;;;;5010755;28;20044;-75
2022/02/21 10:52:35;;;;;;;11.05;2.83;;;5.10;85.80;;;;;;5009885;28;20112;-75
2022/02/21 10:55:01;;;;;;;8.32;2.15;;;5.10;86.10;;;;;;5009929;28;20034;-75
2022/02/21 10:57:28;;;;;;;5.38;1.70;;;5.10;86.10;;;;;;5009645;28;20033;-75
2022/02/21 10:59:55;;;;;;;8.57;2.17;;;5.10;86.10;;;;;;5006771;28;20038;-74
2022/02/21 11:02:22;;;;;;;9.32;2.10;;;5.10;86.40;;;;;;5004794;28;20025;-74
2022/02/21 11:04:47;;;;;;;10.32;2.40;;;5.10;86.60;;;;;;5007592;28;20618;-77
2022/02/21 11:07:14;;;;;;;8.43;2.25;;;5.10;86.70;;;;;;5007201;28;20105;-75
2022/02/21 11:09:41;;;;;;;8.38;2.35;;;5.10;86.90;;;;;;5005879;28;20026;-77
2022/02/21 11:12:10;;;;;;;10.00;2.50;;;5.10;87.10;;;;;;5002998;28;20174;-75
2022/02/21 11:14:38;;;;;;;9.30;2.33;;;5.20;87.20;;;;;;5005558;28;20030;-76
2022/02/21 11:17:06;;;;;;;9.95;2.28;;;5.20;87.40;;;;;;5005569;28;20495;-76
2022/02/21 11:19:32;;;;;;;9.30;2.50;;;5.20;87.50;;;;;;5005126;28;20036;-78
2022/02/21 11:21:58;;;;;;;11.43;2.63;;;5.30;87.50;;;;;;5008581;28;20676;-75
2022/02/21 11:24:29;;;;;;;9.23;2.60;;;5.30;87.60;;;;;;5010194;28;20551;-77
2022/02/21 11:27:06;;;;;;;12.60;2.85;;;5.30;87.60;;;;;;5010822;28;20112;-77
2022/02/21 11:29:47;;;;;;;11.00;2.63;;;5.40;87.50;;;;;;5000459;28;20076;-76
2022/02/21 11:32:20;;;;;;;13.35;3.17;;;5.40;87.60;;;;;;5007773;28;20029;-76
2022/02/21 11:35:10;;;;;;;12.20;2.67;;;5.50;87.70;;;;;;5006152;28;20029;-76
2022/02/21 11:37:37;;;;;;;14.48;2.97;;;5.50;87.70;;;;;;5008440;28;20053;-77
2022/02/21 11:40:05;;;;;;;13.50;3.22;;;5.50;87.80;;;;;;5006463;28;20037;-76
2022/02/21 11:42:35;;;;;;;11.07;2.90;;;5.50;87.90;;;;;;5008777;28;20113;-76
2022/02/21 11:45:04;;;;;;;16.77;3.50;;;5.60;88.10;;;;;;5011847;28;20022;-76
2022/02/21 11:47:34;;;;;;;15.10;3.22;;;5.70;88.20;;;;;;5004843;28;20096;-76
2022/02/21 11:50:02;;;;;;;17.40;3.53;;;5.70;88.20;;;;;;5009164;28;20018;-77
2022/02/21 11:52:30;;;;;;;14.70;3.08;;;5.80;88.30;;;;;;5007722;28;20049;-77
2022/02/21 11:54:59;;;;;;;15.43;3.63;;;5.80;88.50;;;;;;5007641;28;20072;-77
2022/02/21 11:57:42;;;;;;;20.92;3.97;;;5.80;88.60;;;;;;5006183;28;20456;-74
2022/02/21 12:00:40;;;;;;;15.18;3.67;;;5.90;88.80;;;;;;5006465;28;20030;-75
2022/02/21 12:03:17;;;;;;;18.17;4.30;;;6.00;89.00;;;;;;5010248;28;20041;-75
2022/02/21 12:06:06;;;;;;;19.10;4.22;;;6.10;89.00;;;;;;5008687;28;20026;-75
2022/02/21 12:08:32;;;;;;;20.83;5.53;;;6.20;89.10;;;;;;5013721;28;20041;-74
2022/02/21 12:11:07;;;;;;;17.27;4.38;;;6.30;89.30;;;;;;5010607;28;20037;-74
2022/02/21 12:13:33;;;;;;;14.90;4.40;;;6.40;89.60;;;;;;5008099;28;20030;-74
2022/02/21 12:16:01;;;;;;;21.05;3.83;;;6.50;89.30;;;;;;5011218;28;20503;-74
2022/02/21 12:18:26;;;;;;;15.45;3.80;;;6.50;89.30;;;;;;5013843;28;20543;-76
2022/02/21 12:21:22;;;;;;;18.00;3.67;;;6.60;89.40;;;;;;5011268;28;20065;-75
2022/02/21 12:24:00;;;;;;;14.85;3.30;;;6.80;89.40;;;;;;5011134;28;20021;-75
2022/02/21 12:26:28;;;;;;;17.05;3.90;;;6.80;89.30;;;;;;5007439;28;20030;-73
2022/02/21 12:29:13;;;;;;;15.75;3.72;;;6.90;89.50;;;;;;5012148;28;20058;-74
2022/02/21 12:31:44;;;;;;;17.92;4.10;;;7.00;89.60;;;;;;5010966;28;20018;-74
2022/02/21 12:34:14;;;;;;;14.35;3.88;;;7.00;89.40;;;;;;5009996;28;20029;-74
2022/02/21 12:36:44;;;;;;;14.80;2.90;;;7.10;89.40;;;;;;5012270;28;20595;-77
2022/02/21 12:39:12;;;;;;;15.43;3.67;;;7.20;89.30;;;;;;5004983;28;20025;-74
2022/02/21 12:41:40;;;;;;;15.85;3.30;;;7.20;89.20;;;;;;5017282;28;20116;-75
2022/02/21 12:44:10;;;;;;;14.68;3.33;;;7.20;89.20;;;;;;5021472;28;20021;-75
2022/02/21 12:46:42;;;;;;;18.75;3.97;;;7.20;89.20;;;;;;5011569;28;20034;-75
2022/02/21 12:49:16;;;;;;;13.38;3.10;;;7.30;89.30;;;;;;5015331;28;20462;-77
2022/02/21 12:51:49;;;;;;;16.08;2.92;;;7.40;89.40;;;;;;5013357;28;20025;-75
2022/02/21 12:54:15;;;;;;;18.60;3.97;;;7.50;89.30;;;;;;4997866;28;20026;-75